sensor_id;sensor_type;location;lat;lon;timestamp;temperature;humidity
37289;DHT22;23174;49.462;11.000;2023-08-07T00:01:07;15.00;99.90
37289;DHT22;23174;49.462;11.000;2023-08-07T00:03:08;15.00;99.90
37289;DHT22;23174;49.462;11.000;2023-08-07T00:05:08;15.00;99.90
37289;DHT22;23174;49.462;11.000;2023-08-07T00:07:09;15.10;99.90
37289;DHT22;23174;49.462;11.000;2023-08-07T00:09:09;15.20;99.90
37289;DHT22;23174;49.462;11.000;2023-08-07T00:11:10;15.30;99.90
37289;DHT22;23174;49.462;11.000;2023-08-07T00:13:11;15.20;99.90
37289;DHT22;23174;49.462;11.000;2023-08-07T00:15:11;15.20;99.90
37289;DHT22;23174;49.462;11.000;2023-08-07T00:17:12;15.30;99.90
37289;DHT22;23174;49.462;11.000;2023-08-07T00:19:12;15.20;99.90
37289;DHT22;23174;49.462;11.000;2023-08-07T00:21:13;15.20;99.90
37289;DHT22;23174;49.462;11.000;2023-08-07T00:23:13;15.20;99.90
37289;DHT22;23174;49.462;11.000;2023-08-07T00:25:14;15.10;99.90
37289;DHT22;23174;49.462;11.000;2023-08-07T00:27:14;15.00;99.90
37289;DHT22;23174;49.462;11.000;2023-08-07T00:29:15;15.20;99.90
37289;DHT22;23174;49.462;11.000;2023-08-07T00:31:15;15.10;99.90
37289;DHT22;23174;49.462;11.000;2023-08-07T00:33:16;15.20;99.90
37289;DHT22;23174;49.462;11.000;2023-08-07T00:35:16;15.20;99.90
37289;DHT22;23174;49.462;11.000;2023-08-07T00:37:17;15.10;99.90
37289;DHT22;23174;49.462;11.000;2023-08-07T00:39:17;15.10;99.90
37289;DHT22;23174;49.462;11.000;2023-08-07T00:41:18;15.20;99.90
37289;DHT22;23174;49.462;11.000;2023-08-07T00:43:18;15.20;99.90
37289;DHT22;23174;49.462;11.000;2023-08-07T00:45:19;15.10;99.90
37289;DHT22;23174;49.462;11.000;2023-08-07T00:47:21;15.00;99.90
37289;DHT22;23174;49.462;11.000;2023-08-07T00:49:21;15.00;99.90
37289;DHT22;23174;49.462;11.000;2023-08-07T00:51:23;15.00;99.90
37289;DHT22;23174;49.462;11.000;2023-08-07T00:53:24;14.90;99.90
37289;DHT22;23174;49.462;11.000;2023-08-07T00:55:24;14.90;99.90
37289;DHT22;23174;49.462;11.000;2023-08-07T00:57:25;14.90;99.90
37289;DHT22;23174;49.462;11.000;2023-08-07T00:59:26;15.00;99.90
37289;DHT22;23174;49.462;11.000;2023-08-07T01:01:27;15.00;99.90
37289;DHT22;23174;49.462;11.000;2023-08-07T01:03:27;15.00;99.90
37289;DHT22;23174;49.462;11.000;2023-08-07T01:05:28;15.00;99.90
37289;DHT22;23174;49.462;11.000;2023-08-07T01:07:29;15.00;99.90
37289;DHT22;23174;49.462;11.000;2023-08-07T01:09:29;15.00;99.90
37289;DHT22;23174;49.462;11.000;2023-08-07T01:11:38;15.00;99.90
37289;DHT22;23174;49.462;11.000;2023-08-07T01:13:49;14.90;99.90
37289;DHT22;23174;49.462;11.000;2023-08-07T01:15:55;15.00;99.90
37289;DHT22;23174;49.462;11.000;2023-08-07T01:17:56;15.00;99.90
37289;DHT22;23174;49.462;11.000;2023-08-07T01:19:57;15.00;99.90
37289;DHT22;23174;49.462;11.000;2023-08-07T01:22:12;14.90;99.90
37289;DHT22;23174;49.462;11.000;2023-08-07T01:24:13;15.00;99.90
37289;DHT22;23174;49.462;11.000;2023-08-07T01:26:18;15.00;99.90
37289;DHT22;23174;49.462;11.000;2023-08-07T01:28:27;14.90;99.90
37289;DHT22;23174;49.462;11.000;2023-08-07T01:30:41;14.90;99.90
37289;DHT22;23174;49.462;11.000;2023-08-07T01:34:58;15.00;99.90
37289;DHT22;23174;49.462;11.000;2023-08-07T01:37:02;15.10;99.90
37289;DHT22;23174;49.462;11.000;2023-08-07T01:39:04;15.00;99.90
37289;DHT22;23174;49.462;11.000;2023-08-07T01:41:07;14.90;99.90
37289;DHT22;23174;49.462;11.000;2023-08-07T01:43:08;15.00;99.90
37289;DHT22;23174;49.462;11.000;2023-08-07T01:45:09;15.00;99.90
37289;DHT22;23174;49.462;11.000;2023-08-07T01:47:09;15.00;99.90
37289;DHT22;23174;49.462;11.000;2023-08-07T01:49:10;15.00;99.90
37289;DHT22;23174;49.462;11.000;2023-08-07T01:51:10;14.90;99.90
37289;DHT22;23174;49.462;11.000;2023-08-07T01:53:11;14.90;99.90
37289;DHT22;23174;49.462;11.000;2023-08-07T01:55:12;14.90;99.90
37289;DHT22;23174;49.462;11.000;2023-08-07T01:57:12;14.90;99.90
37289;DHT22;23174;49.462;11.000;2023-08-07T01:59:12;14.90;99.90
37289;DHT22;23174;49.462;11.000;2023-08-07T02:01:13;15.00;99.90
37289;DHT22;23174;49.462;11.000;2023-08-07T02:03:13;15.00;99.90
37289;DHT22;23174;49.462;11.000;2023-08-07T02:05:15;15.00;99.90
37289;DHT22;23174;49.462;11.000;2023-08-07T02:07:15;15.10;99.90
37289;DHT22;23174;49.462;11.000;2023-08-07T02:09:16;14.90;99.90
37289;DHT22;23174;49.462;11.000;2023-08-07T02:11:16;14.90;99.90
37289;DHT22;23174;49.462;11.000;2023-08-07T02:13:17;14.90;99.90
37289;DHT22;23174;49.462;11.000;2023-08-07T02:15:17;14.90;99.90
37289;DHT22;23174;49.462;11.000;2023-08-07T02:17:20;14.90;99.90
37289;DHT22;23174;49.462;11.000;2023-08-07T02:19:20;15.00;99.90
37289;DHT22;23174;49.462;11.000;2023-08-07T02:21:21;14.90;99.90
37289;DHT22;23174;49.462;11.000;2023-08-07T02:23:21;15.00;99.90
37289;DHT22;23174;49.462;11.000;2023-08-07T02:25:22;15.00;99.90
37289;DHT22;23174;49.462;11.000;2023-08-07T02:27:22;15.00;99.90
37289;DHT22;23174;49.462;11.000;2023-08-07T02:29:23;14.90;99.90
37289;DHT22;23174;49.462;11.000;2023-08-07T02:31:23;14.90;99.90
37289;DHT22;23174;49.462;11.000;2023-08-07T02:33:23;15.00;99.90
37289;DHT22;23174;49.462;11.000;2023-08-07T02:35:24;15.00;99.90
37289;DHT22;23174;49.462;11.000;2023-08-07T02:37:25;14.90;99.90
37289;DHT22;23174;49.462;11.000;2023-08-07T02:39:25;14.80;99.90
37289;DHT22;23174;49.462;11.000;2023-08-07T02:41:26;14.90;99.90
37289;DHT22;23174;49.462;11.000;2023-08-07T02:43:26;14.80;99.90
37289;DHT22;23174;49.462;11.000;2023-08-07T02:45:28;14.80;99.90
37289;DHT22;23174;49.462;11.000;2023-08-07T02:47:29;14.90;99.90
37289;DHT22;23174;49.462;11.000;2023-08-07T02:49:30;14.90;99.90
37289;DHT22;23174;49.462;11.000;2023-08-07T02:51:30;14.80;99.90
37289;DHT22;23174;49.462;11.000;2023-08-07T02:53:31;14.90;99.90
37289;DHT22;23174;49.462;11.000;2023-08-07T02:55:31;14.80;99.90
37289;DHT22;23174;49.462;11.000;2023-08-07T02:57:33;14.90;99.90
37289;DHT22;23174;49.462;11.000;2023-08-07T02:59:33;14.90;99.90
37289;DHT22;23174;49.462;11.000;2023-08-07T03:01:33;14.90;99.90
37289;DHT22;23174;49.462;11.000;2023-08-07T03:03:34;14.80;99.90
37289;DHT22;23174;49.462;11.000;2023-08-07T03:05:35;14.90;99.90
37289;DHT22;23174;49.462;11.000;2023-08-07T03:07:35;14.80;99.90
37289;DHT22;23174;49.462;11.000;2023-08-07T03:09:36;14.90;99.90
37289;DHT22;23174;49.462;11.000;2023-08-07T03:11:36;14.90;99.90
37289;DHT22;23174;49.462;11.000;2023-08-07T03:13:37;15.00;99.90
37289;DHT22;23174;49.462;11.000;2023-08-07T03:15:37;14.90;99.90
37289;DHT22;23174;49.462;11.000;2023-08-07T03:17:38;14.90;99.90
37289;DHT22;23174;49.462;11.000;2023-08-07T03:19:41;14.90;99.90
37289;DHT22;23174;49.462;11.000;2023-08-07T03:21:42;14.70;99.90
37289;DHT22;23174;49.462;11.000;2023-08-07T03:23:42;14.70;99.90
37289;DHT22;23174;49.462;11.000;2023-08-07T03:25:43;14.70;99.90
37289;DHT22;23174;49.462;11.000;2023-08-07T03:27:43;14.70;99.90
37289;DHT22;23174;49.462;11.000;2023-08-07T03:29:44;14.70;99.90
37289;DHT22;23174;49.462;11.000;2023-08-07T03:31:44;14.60;99.90
37289;DHT22;23174;49.462;11.000;2023-08-07T03:33:44;14.60;99.90
37289;DHT22;23174;49.462;11.000;2023-08-07T03:35:45;14.70;99.90
37289;DHT22;23174;49.462;11.000;2023-08-07T03:37:46;14.70;99.90
37289;DHT22;23174;49.462;11.000;2023-08-07T03:39:46;14.70;99.90
37289;DHT22;23174;49.462;11.000;2023-08-07T03:41:49;14.70;99.90
37289;DHT22;23174;49.462;11.000;2023-08-07T03:43:50;14.70;99.90
37289;DHT22;23174;49.462;11.000;2023-08-07T03:45:55;14.70;99.90
37289;DHT22;23174;49.462;11.000;2023-08-07T03:47:56;14.60;99.90
37289;DHT22;23174;49.462;11.000;2023-08-07T03:49:57;14.60;99.90
37289;DHT22;23174;49.462;11.000;2023-08-07T03:51:57;14.60;99.90
37289;DHT22;23174;49.462;11.000;2023-08-07T03:53:59;14.60;99.90
37289;DHT22;23174;49.462;11.000;2023-08-07T03:55:59;14.60;99.90
37289;DHT22;23174;49.462;11.000;2023-08-07T03:58:00;14.60;99.90
37289;DHT22;23174;49.462;11.000;2023-08-07T04:00:00;14.60;99.90
37289;DHT22;23174;49.462;11.000;2023-08-07T04:02:01;14.60;99.90
37289;DHT22;23174;49.462;11.000;2023-08-07T04:04:02;14.60;99.90
37289;DHT22;23174;49.462;11.000;2023-08-07T04:06:02;14.40;99.90
37289;DHT22;23174;49.462;11.000;2023-08-07T04:08:05;14.40;99.90
37289;DHT22;23174;49.462;11.000;2023-08-07T04:10:06;14.30;99.90
37289;DHT22;23174;49.462;11.000;2023-08-07T04:12:07;14.40;99.90
37289;DHT22;23174;49.462;11.000;2023-08-07T04:14:07;14.20;99.90
37289;DHT22;23174;49.462;11.000;2023-08-07T04:16:08;14.00;99.90
37289;DHT22;23174;49.462;11.000;2023-08-07T04:18:08;14.10;99.90
37289;DHT22;23174;49.462;11.000;2023-08-07T04:20:09;14.00;99.90
37289;DHT22;23174;49.462;11.000;2023-08-07T04:22:10;14.00;99.90
37289;DHT22;23174;49.462;11.000;2023-08-07T04:24:11;14.10;99.90
37289;DHT22;23174;49.462;11.000;2023-08-07T04:26:11;14.20;99.90
37289;DHT22;23174;49.462;11.000;2023-08-07T04:28:12;14.10;99.90
37289;DHT22;23174;49.462;11.000;2023-08-07T04:30:12;14.00;99.90
37289;DHT22;23174;49.462;11.000;2023-08-07T04:32:13;14.00;99.90
37289;DHT22;23174;49.462;11.000;2023-08-07T04:34:13;13.90;99.90
37289;DHT22;23174;49.462;11.000;2023-08-07T04:36:14;13.90;99.90
37289;DHT22;23174;49.462;11.000;2023-08-07T04:38:17;14.00;99.90
37289;DHT22;23174;49.462;11.000;2023-08-07T04:40:17;13.90;99.90
37289;DHT22;23174;49.462;11.000;2023-08-07T04:42:18;14.00;99.90
37289;DHT22;23174;49.462;11.000;2023-08-07T04:44:18;14.00;99.90
37289;DHT22;23174;49.462;11.000;2023-08-07T04:46:19;14.20;99.90
37289;DHT22;23174;49.462;11.000;2023-08-07T04:48:19;14.20;99.90
37289;DHT22;23174;49.462;11.000;2023-08-07T04:50:21;14.00;99.90
37289;DHT22;23174;49.462;11.000;2023-08-07T04:52:21;13.90;99.90
37289;DHT22;23174;49.462;11.000;2023-08-07T04:54:22;13.90;99.90
37289;DHT22;23174;49.462;11.000;2023-08-07T04:56:22;14.00;99.90
37289;DHT22;23174;49.462;11.000;2023-08-07T04:58:23;14.00;99.90
37289;DHT22;23174;49.462;11.000;2023-08-07T05:00:24;13.90;99.90
37289;DHT22;23174;49.462;11.000;2023-08-07T05:02:24;13.90;99.90
37289;DHT22;23174;49.462;11.000;2023-08-07T05:04:25;14.10;99.90
37289;DHT22;23174;49.462;11.000;2023-08-07T05:06:25;14.00;99.90
37289;DHT22;23174;49.462;11.000;2023-08-07T05:08:26;13.90;99.90
37289;DHT22;23174;49.462;11.000;2023-08-07T05:10:27;14.00;99.90
37289;DHT22;23174;49.462;11.000;2023-08-07T05:12:27;14.00;99.90
37289;DHT22;23174;49.462;11.000;2023-08-07T05:14:29;14.00;99.90
37289;DHT22;23174;49.462;11.000;2023-08-07T05:16:30;13.90;99.90
37289;DHT22;23174;49.462;11.000;2023-08-07T05:18:31;14.00;99.90
37289;DHT22;23174;49.462;11.000;2023-08-07T05:20:31;13.90;99.90
37289;DHT22;23174;49.462;11.000;2023-08-07T05:22:32;14.00;99.90
37289;DHT22;23174;49.462;11.000;2023-08-07T05:24:32;14.00;99.90
37289;DHT22;23174;49.462;11.000;2023-08-07T05:26:38;14.00;99.90
37289;DHT22;23174;49.462;11.000;2023-08-07T05:28:39;14.00;99.90
37289;DHT22;23174;49.462;11.000;2023-08-07T05:30:39;14.00;99.90
37289;DHT22;23174;49.462;11.000;2023-08-07T05:32:40;14.00;99.90
37289;DHT22;23174;49.462;11.000;2023-08-07T05:34:41;13.90;99.90
37289;DHT22;23174;49.462;11.000;2023-08-07T05:36:41;13.90;99.90
37289;DHT22;23174;49.462;11.000;2023-08-07T05:38:42;13.80;99.90
37289;DHT22;23174;49.462;11.000;2023-08-07T05:40:43;13.80;99.90
37289;DHT22;23174;49.462;11.000;2023-08-07T05:42:43;13.90;99.90
37289;DHT22;23174;49.462;11.000;2023-08-07T05:44:44;13.90;99.90
37289;DHT22;23174;49.462;11.000;2023-08-07T05:46:45;14.00;99.90
37289;DHT22;23174;49.462;11.000;2023-08-07T05:48:45;13.90;99.90
37289;DHT22;23174;49.462;11.000;2023-08-07T05:50:45;13.90;99.90
37289;DHT22;23174;49.462;11.000;2023-08-07T05:52:46;14.10;99.90
37289;DHT22;23174;49.462;11.000;2023-08-07T05:54:47;14.10;99.90
37289;DHT22;23174;49.462;11.000;2023-08-07T05:56:48;14.00;99.90
37289;DHT22;23174;49.462;11.000;2023-08-07T05:58:49;13.90;99.90
37289;DHT22;23174;49.462;11.000;2023-08-07T06:00:49;14.10;99.90
37289;DHT22;23174;49.462;11.000;2023-08-07T06:02:49;14.00;99.90
37289;DHT22;23174;49.462;11.000;2023-08-07T06:04:50;14.00;99.90
37289;DHT22;23174;49.462;11.000;2023-08-07T06:06:50;14.00;99.90
37289;DHT22;23174;49.462;11.000;2023-08-07T06:08:52;14.00;99.90
37289;DHT22;23174;49.462;11.000;2023-08-07T06:10:52;14.10;99.90
37289;DHT22;23174;49.462;11.000;2023-08-07T06:12:53;14.10;99.90
37289;DHT22;23174;49.462;11.000;2023-08-07T06:14:53;14.00;99.90
37289;DHT22;23174;49.462;11.000;2023-08-07T06:16:54;14.00;99.90
37289;DHT22;23174;49.462;11.000;2023-08-07T06:18:55;14.20;99.90
37289;DHT22;23174;49.462;11.000;2023-08-07T06:20:56;14.20;99.90
37289;DHT22;23174;49.462;11.000;2023-08-07T06:22:56;14.20;99.90
37289;DHT22;23174;49.462;11.000;2023-08-07T06:24:57;14.20;99.90
37289;DHT22;23174;49.462;11.000;2023-08-07T06:26:57;14.20;99.90
37289;DHT22;23174;49.462;11.000;2023-08-07T06:28:58;14.10;99.90
37289;DHT22;23174;49.462;11.000;2023-08-07T06:31:08;14.10;99.90
37289;DHT22;23174;49.462;11.000;2023-08-07T06:33:10;14.20;99.90
37289;DHT22;23174;49.462;11.000;2023-08-07T06:35:10;14.20;99.90
37289;DHT22;23174;49.462;11.000;2023-08-07T06:37:11;14.30;99.90
37289;DHT22;23174;49.462;11.000;2023-08-07T06:39:11;14.10;99.90
37289;DHT22;23174;49.462;11.000;2023-08-07T06:41:12;14.10;99.90
37289;DHT22;23174;49.462;11.000;2023-08-07T06:43:13;14.20;99.90
37289;DHT22;23174;49.462;11.000;2023-08-07T06:45:13;14.10;99.90
37289;DHT22;23174;49.462;11.000;2023-08-07T06:47:14;14.20;99.90
37289;DHT22;23174;49.462;11.000;2023-08-07T06:49:14;14.60;99.90
37289;DHT22;23174;49.462;11.000;2023-08-07T06:51:15;15.00;99.90
37289;DHT22;23174;49.462;11.000;2023-08-07T06:53:17;15.30;99.90
37289;DHT22;23174;49.462;11.000;2023-08-07T06:55:18;15.40;99.90
37289;DHT22;23174;49.462;11.000;2023-08-07T06:57:19;15.40;99.90
37289;DHT22;23174;49.462;11.000;2023-08-07T06:59:19;15.40;99.90
37289;DHT22;23174;49.462;11.000;2023-08-07T07:01:21;15.50;99.90
37289;DHT22;23174;49.462;11.000;2023-08-07T07:03:21;15.50;99.90
37289;DHT22;23174;49.462;11.000;2023-08-07T07:05:22;15.50;99.90
37289;DHT22;23174;49.462;11.000;2023-08-07T07:07:22;15.40;99.90
37289;DHT22;23174;49.462;11.000;2023-08-07T07:09:23;15.40;99.90
37289;DHT22;23174;49.462;11.000;2023-08-07T07:11:23;15.40;99.90
37289;DHT22;23174;49.462;11.000;2023-08-07T07:13:24;15.40;99.90
37289;DHT22;23174;49.462;11.000;2023-08-07T07:15:25;15.40;99.90
37289;DHT22;23174;49.462;11.000;2023-08-07T07:17:25;15.50;99.90
37289;DHT22;23174;49.462;11.000;2023-08-07T07:19:26;15.40;99.90
37289;DHT22;23174;49.462;11.000;2023-08-07T07:21:26;15.50;99.90
37289;DHT22;23174;49.462;11.000;2023-08-07T07:23:27;15.50;99.90
37289;DHT22;23174;49.462;11.000;2023-08-07T07:25:27;15.50;99.90
37289;DHT22;23174;49.462;11.000;2023-08-07T07:27:28;15.50;99.90
37289;DHT22;23174;49.462;11.000;2023-08-07T07:29:29;15.50;99.90
37289;DHT22;23174;49.462;11.000;2023-08-07T07:31:29;15.60;99.90
37289;DHT22;23174;49.462;11.000;2023-08-07T07:33:30;15.60;99.90
37289;DHT22;23174;49.462;11.000;2023-08-07T07:35:31;15.70;99.90
37289;DHT22;23174;49.462;11.000;2023-08-07T07:37:31;15.70;99.90
37289;DHT22;23174;49.462;11.000;2023-08-07T07:39:34;15.60;99.90
37289;DHT22;23174;49.462;11.000;2023-08-07T07:41:37;15.60;99.90
37289;DHT22;23174;49.462;11.000;2023-08-07T07:43:38;15.70;99.90
37289;DHT22;23174;49.462;11.000;2023-08-07T07:45:38;15.60;99.90
37289;DHT22;23174;49.462;11.000;2023-08-07T07:47:39;15.60;99.90
37289;DHT22;23174;49.462;11.000;2023-08-07T07:49:44;15.70;99.90
37289;DHT22;23174;49.462;11.000;2023-08-07T07:51:45;15.60;99.90
37289;DHT22;23174;49.462;11.000;2023-08-07T07:53:46;15.70;99.90
37289;DHT22;23174;49.462;11.000;2023-08-07T07:55:47;15.70;99.90
37289;DHT22;23174;49.462;11.000;2023-08-07T07:57:48;15.70;99.90
37289;DHT22;23174;49.462;11.000;2023-08-07T07:59:48;15.80;99.90
37289;DHT22;23174;49.462;11.000;2023-08-07T08:01:49;15.90;99.90
37289;DHT22;23174;49.462;11.000;2023-08-07T08:03:49;15.80;99.90
37289;DHT22;23174;49.462;11.000;2023-08-07T08:05:51;15.80;99.90
37289;DHT22;23174;49.462;11.000;2023-08-07T08:07:52;16.00;99.90
37289;DHT22;23174;49.462;11.000;2023-08-07T08:09:52;15.80;99.90
37289;DHT22;23174;49.462;11.000;2023-08-07T08:11:52;15.70;99.90
37289;DHT22;23174;49.462;11.000;2023-08-07T08:13:53;15.70;99.90
37289;DHT22;23174;49.462;11.000;2023-08-07T08:15:54;15.70;99.90
37289;DHT22;23174;49.462;11.000;2023-08-07T08:17:54;15.80;99.90
37289;DHT22;23174;49.462;11.000;2023-08-07T08:19:55;15.80;99.90
37289;DHT22;23174;49.462;11.000;2023-08-07T08:21:55;15.80;99.90
37289;DHT22;23174;49.462;11.000;2023-08-07T08:23:56;15.70;99.90
37289;DHT22;23174;49.462;11.000;2023-08-07T08:25:56;15.70;99.90
37289;DHT22;23174;49.462;11.000;2023-08-07T08:27:57;15.70;99.90
37289;DHT22;23174;49.462;11.000;2023-08-07T08:29:57;15.70;99.90
37289;DHT22;23174;49.462;11.000;2023-08-07T08:31:58;15.80;99.90
37289;DHT22;23174;49.462;11.000;2023-08-07T08:33:58;15.70;99.90
37289;DHT22;23174;49.462;11.000;2023-08-07T08:35:59;15.80;99.90
37289;DHT22;23174;49.462;11.000;2023-08-07T08:38:00;15.80;99.90
37289;DHT22;23174;49.462;11.000;2023-08-07T08:40:00;15.80;99.90
37289;DHT22;23174;49.462;11.000;2023-08-07T08:42:02;15.80;99.90
37289;DHT22;23174;49.462;11.000;2023-08-07T08:44:04;15.80;99.90
37289;DHT22;23174;49.462;11.000;2023-08-07T08:46:05;15.80;99.90
37289;DHT22;23174;49.462;11.000;2023-08-07T08:48:07;15.80;99.90
37289;DHT22;23174;49.462;11.000;2023-08-07T08:50:13;15.80;99.90
37289;DHT22;23174;49.462;11.000;2023-08-07T08:52:15;15.90;99.90
37289;DHT22;23174;49.462;11.000;2023-08-07T08:54:16;15.80;99.90
37289;DHT22;23174;49.462;11.000;2023-08-07T08:56:17;15.80;99.90
37289;DHT22;23174;49.462;11.000;2023-08-07T08:58:19;15.90;99.90
37289;DHT22;23174;49.462;11.000;2023-08-07T09:00:21;15.90;99.90
37289;DHT22;23174;49.462;11.000;2023-08-07T09:02:23;15.90;99.90
37289;DHT22;23174;49.462;11.000;2023-08-07T09:04:24;15.90;99.90
37289;DHT22;23174;49.462;11.000;2023-08-07T09:06:25;15.90;99.90
37289;DHT22;23174;49.462;11.000;2023-08-07T09:08:27;16.00;99.90
37289;DHT22;23174;49.462;11.000;2023-08-07T09:10:30;15.90;99.90
37289;DHT22;23174;49.462;11.000;2023-08-07T09:12:33;15.90;99.90
37289;DHT22;23174;49.462;11.000;2023-08-07T09:14:35;15.90;99.90
37289;DHT22;23174;49.462;11.000;2023-08-07T09:16:38;15.90;99.90
37289;DHT22;23174;49.462;11.000;2023-08-07T09:18:39;15.90;99.90
37289;DHT22;23174;49.462;11.000;2023-08-07T09:20:40;15.90;99.90
37289;DHT22;23174;49.462;11.000;2023-08-07T09:22:42;15.90;99.90
37289;DHT22;23174;49.462;11.000;2023-08-07T09:24:42;15.90;99.90
37289;DHT22;23174;49.462;11.000;2023-08-07T09:26:43;15.90;99.90
37289;DHT22;23174;49.462;11.000;2023-08-07T09:28:44;15.90;99.90
37289;DHT22;23174;49.462;11.000;2023-08-07T09:30:44;16.00;99.90
37289;DHT22;23174;49.462;11.000;2023-08-07T09:32:47;16.00;99.90
37289;DHT22;23174;49.462;11.000;2023-08-07T09:34:49;16.00;99.90
37289;DHT22;23174;49.462;11.000;2023-08-07T09:36:51;16.00;99.90
37289;DHT22;23174;49.462;11.000;2023-08-07T09:38:52;16.00;99.90
37289;DHT22;23174;49.462;11.000;2023-08-07T09:40:52;16.00;99.90
37289;DHT22;23174;49.462;11.000;2023-08-07T09:42:54;16.00;99.90
37289;DHT22;23174;49.462;11.000;2023-08-07T09:44:54;16.00;99.90
37289;DHT22;23174;49.462;11.000;2023-08-07T09:46:55;15.90;99.90
37289;DHT22;23174;49.462;11.000;2023-08-07T09:48:57;15.90;99.90
37289;DHT22;23174;49.462;11.000;2023-08-07T09:51:01;15.80;99.90
37289;DHT22;23174;49.462;11.000;2023-08-07T09:53:03;15.90;99.90
37289;DHT22;23174;49.462;11.000;2023-08-07T09:55:03;15.90;99.90
37289;DHT22;23174;49.462;11.000;2023-08-07T09:57:05;16.00;99.90
37289;DHT22;23174;49.462;11.000;2023-08-07T09:59:08;16.00;99.90
37289;DHT22;23174;49.462;11.000;2023-08-07T10:01:08;16.00;99.90
37289;DHT22;23174;49.462;11.000;2023-08-07T10:03:09;15.90;99.90
37289;DHT22;23174;49.462;11.000;2023-08-07T10:05:11;15.70;99.90
37289;DHT22;23174;49.462;11.000;2023-08-07T10:07:11;15.50;99.90
37289;DHT22;23174;49.462;11.000;2023-08-07T10:09:15;15.40;99.90
37289;DHT22;23174;49.462;11.000;2023-08-07T10:11:15;15.40;99.90
37289;DHT22;23174;49.462;11.000;2023-08-07T10:13:17;15.30;99.90
37289;DHT22;23174;49.462;11.000;2023-08-07T10:15:18;15.30;99.90
37289;DHT22;23174;49.462;11.000;2023-08-07T10:17:21;15.20;99.90
37289;DHT22;23174;49.462;11.000;2023-08-07T10:19:22;15.20;99.90
37289;DHT22;23174;49.462;11.000;2023-08-07T10:21:24;15.20;99.90
37289;DHT22;23174;49.462;11.000;2023-08-07T10:23:24;15.10;99.90
37289;DHT22;23174;49.462;11.000;2023-08-07T10:25:26;15.10;99.90
37289;DHT22;23174;49.462;11.000;2023-08-07T10:27:29;15.00;99.90
37289;DHT22;23174;49.462;11.000;2023-08-07T10:29:31;15.10;99.90
37289;DHT22;23174;49.462;11.000;2023-08-07T10:31:34;15.20;99.90
37289;DHT22;23174;49.462;11.000;2023-08-07T10:33:35;15.20;99.90
37289;DHT22;23174;49.462;11.000;2023-08-07T10:35:36;15.20;99.90
37289;DHT22;23174;49.462;11.000;2023-08-07T10:37:42;15.30;99.90
37289;DHT22;23174;49.462;11.000;2023-08-07T10:40:01;15.40;99.90
37289;DHT22;23174;49.462;11.000;2023-08-07T10:42:03;15.30;99.90
37289;DHT22;23174;49.462;11.000;2023-08-07T10:44:05;15.30;99.90
37289;DHT22;23174;49.462;11.000;2023-08-07T10:46:08;15.30;99.90
37289;DHT22;23174;49.462;11.000;2023-08-07T10:48:13;15.40;99.90
37289;DHT22;23174;49.462;11.000;2023-08-07T10:50:17;15.30;99.90
37289;DHT22;23174;49.462;11.000;2023-08-07T10:52:20;15.30;99.90
37289;DHT22;23174;49.462;11.000;2023-08-07T10:54:23;15.30;99.90
37289;DHT22;23174;49.462;11.000;2023-08-07T10:56:34;15.50;99.90
37289;DHT22;23174;49.462;11.000;2023-08-07T10:58:40;15.40;99.90
37289;DHT22;23174;49.462;11.000;2023-08-07T11:00:41;15.40;99.90
37289;DHT22;23174;49.462;11.000;2023-08-07T11:02:42;15.40;99.90
37289;DHT22;23174;49.462;11.000;2023-08-07T11:04:43;15.40;99.90
37289;DHT22;23174;49.462;11.000;2023-08-07T11:06:47;15.40;99.90
37289;DHT22;23174;49.462;11.000;2023-08-07T11:08:49;15.40;99.90
37289;DHT22;23174;49.462;11.000;2023-08-07T11:10:51;15.30;99.90
37289;DHT22;23174;49.462;11.000;2023-08-07T11:12:52;15.40;99.90
37289;DHT22;23174;49.462;11.000;2023-08-07T11:14:53;15.30;99.90
37289;DHT22;23174;49.462;11.000;2023-08-07T11:16:56;15.50;99.90
37289;DHT22;23174;49.462;11.000;2023-08-07T11:18:57;15.40;99.90
37289;DHT22;23174;49.462;11.000;2023-08-07T11:20:58;15.60;99.90
37289;DHT22;23174;49.462;11.000;2023-08-07T11:22:59;15.50;99.90
37289;DHT22;23174;49.462;11.000;2023-08-07T11:24:59;15.50;99.90
37289;DHT22;23174;49.462;11.000;2023-08-07T11:27:01;15.40;99.90
37289;DHT22;23174;49.462;11.000;2023-08-07T11:29:02;15.30;99.90
37289;DHT22;23174;49.462;11.000;2023-08-07T11:31:02;15.50;99.90
37289;DHT22;23174;49.462;11.000;2023-08-07T11:33:03;15.40;99.90
37289;DHT22;23174;49.462;11.000;2023-08-07T11:35:05;15.30;99.90
37289;DHT22;23174;49.462;11.000;2023-08-07T11:37:06;15.40;99.90
37289;DHT22;23174;49.462;11.000;2023-08-07T11:39:06;15.40;99.90
37289;DHT22;23174;49.462;11.000;2023-08-07T11:41:07;15.50;99.90
37289;DHT22;23174;49.462;11.000;2023-08-07T11:43:07;15.50;99.90
37289;DHT22;23174;49.462;11.000;2023-08-07T11:45:10;15.50;99.90
37289;DHT22;23174;49.462;11.000;2023-08-07T11:47:10;15.60;99.90
37289;DHT22;23174;49.462;11.000;2023-08-07T11:49:12;15.60;99.90
37289;DHT22;23174;49.462;11.000;2023-08-07T11:51:13;15.50;99.90
37289;DHT22;23174;49.462;11.000;2023-08-07T11:53:13;15.50;99.90
37289;DHT22;23174;49.462;11.000;2023-08-07T11:55:14;15.50;99.90
37289;DHT22;23174;49.462;11.000;2023-08-07T11:57:21;15.50;99.90
37289;DHT22;23174;49.462;11.000;2023-08-07T11:59:22;15.50;99.90
37289;DHT22;23174;49.462;11.000;2023-08-07T12:01:24;15.60;99.90
37289;DHT22;23174;49.462;11.000;2023-08-07T12:03:29;15.60;99.90
37289;DHT22;23174;49.462;11.000;2023-08-07T12:05:39;15.50;99.90
37289;DHT22;23174;49.462;11.000;2023-08-07T12:07:41;15.50;99.90
37289;DHT22;23174;49.462;11.000;2023-08-07T12:09:41;15.50;99.90
37289;DHT22;23174;49.462;11.000;2023-08-07T12:11:42;15.50;99.90
37289;DHT22;23174;49.462;11.000;2023-08-07T12:13:44;15.60;99.90
37289;DHT22;23174;49.462;11.000;2023-08-07T12:15:45;15.60;99.90
37289;DHT22;23174;49.462;11.000;2023-08-07T12:17:46;15.60;99.90
37289;DHT22;23174;49.462;11.000;2023-08-07T12:19:46;15.70;99.90
37289;DHT22;23174;49.462;11.000;2023-08-07T12:21:47;15.70;99.90
37289;DHT22;23174;49.462;11.000;2023-08-07T12:23:49;15.70;99.90
37289;DHT22;23174;49.462;11.000;2023-08-07T12:25:49;15.80;99.90
37289;DHT22;23174;49.462;11.000;2023-08-07T12:27:50;15.80;99.90
37289;DHT22;23174;49.462;11.000;2023-08-07T12:29:50;15.80;99.90
37289;DHT22;23174;49.462;11.000;2023-08-07T12:31:51;15.70;99.90
37289;DHT22;23174;49.462;11.000;2023-08-07T12:33:52;15.80;99.90
37289;DHT22;23174;49.462;11.000;2023-08-07T12:35:52;15.60;99.90